Time;durP1;ratioP1;P1;durP2;ratioP2;P2;SDS_P1;SDS_P2;PMS_P1;PMS_P2;Temp;Humidity;BMP_temperature;BMP_pressure;BME280_temperature;BME280_humidity;BME280_pressure;Samples;Min_cycle;Max_cycle;Signal;HPM_P1;HPM_P2
2021/07/12 17:39:37;;;;;;;13.48;12.38;;;21.20;99.90;;;;;;5118003;27;20468;-69
2021/07/12 17:42:03;;;;;;;13.55;12.23;;;21.20;99.90;;;;;;5099861;28;20053;-69
2021/07/12 17:44:29;;;;;;;13.70;12.60;;;21.30;99.90;;;;;;5097507;28;20042;-69
2021/07/12 17:46:55;;;;;;;13.35;11.95;;;21.40;99.90;;;;;;5099457;28;20054;-69
2021/07/12 17:49:21;;;;;;;13.45;12.35;;;21.40;99.90;;;;;;5098204;28;20742;-69
2021/07/12 17:51:47;;;;;;;13.38;12.07;;;21.50;99.90;;;;;;5098820;28;20052;-69
2021/07/12 17:54:13;;;;;;;14.73;13.38;;;21.50;99.90;;;;;;5094346;28;20532;-69
2021/07/12 17:56:39;;;;;;;12.90;11.85;;;21.50;99.90;;;;;;5100282;28;20042;-68
2021/07/12 17:59:05;;;;;;;14.02;12.88;;;21.50;99.90;;;;;;5098814;28;20470;-69
2021/07/12 18:01:31;;;;;;;13.70;12.63;;;21.50;99.90;;;;;;5098357;28;20504;-69
2021/07/12 18:03:58;;;;;;;13.57;12.43;;;21.50;99.90;;;;;;5096737;28;20283;-69
2021/07/12 18:06:24;;;;;;;13.88;12.68;;;21.50;99.90;;;;;;5098725;28;20096;-68
2021/07/12 18:08:55;;;;;;;14.73;13.52;;;21.50;99.90;;;;;;5099102;28;20073;-69
2021/07/12 18:11:22;;;;;;;13.80;12.60;;;21.50;99.90;;;;;;5101004;28;20048;-69
2021/07/12 18:13:48;;;;;;;14.15;12.93;;;21.50;99.90;;;;;;5095501;28;20039;-69
2021/07/12 18:16:14;;;;;;;14.98;13.50;;;21.60;99.90;;;;;;5095803;28;20043;-71
2021/07/12 18:18:40;;;;;;;15.38;14.18;;;21.50;99.90;;;;;;5094454;28;20049;-69
2021/07/12 18:21:06;;;;;;;15.23;13.93;;;21.50;99.90;;;;;;5096069;28;20040;-69
2021/07/12 18:23:32;;;;;;;14.35;13.15;;;21.50;99.90;;;;;;5092173;28;20040;-69
2021/07/12 18:25:57;;;;;;;15.43;14.05;;;21.50;99.90;;;;;;5097067;28;20039;-68
2021/07/12 18:28:23;;;;;;;15.57;14.15;;;21.50;99.90;;;;;;5093181;28;20435;-69
2021/07/12 18:30:52;;;;;;;13.95;12.65;;;21.50;99.90;;;;;;5095757;28;20064;-69
2021/07/12 18:33:18;;;;;;;15.23;13.82;;;21.50;99.90;;;;;;5092732;28;20047;-69
2021/07/12 18:35:45;;;;;;;15.00;13.65;;;21.40;99.90;;;;;;5096852;28;20409;-69
2021/07/12 18:38:11;;;;;;;15.73;14.30;;;21.40;99.90;;;;;;5094587;28;20048;-69
2021/07/12 18:40:38;;;;;;;17.38;15.80;;;21.30;99.90;;;;;;5095790;28;20129;-69
2021/07/12 18:43:05;;;;;;;17.65;16.02;;;21.30;99.90;;;;;;5092307;28;20050;-69
2021/07/12 18:45:31;;;;;;;17.38;15.95;;;21.30;99.90;;;;;;5095367;28;20115;-69
2021/07/12 18:47:58;;;;;;;17.77;16.27;;;21.20;99.90;;;;;;5095321;28;20123;-69
2021/07/12 18:50:24;;;;;;;18.70;17.08;;;21.20;99.90;;;;;;5083907;28;20125;-69
2021/07/12 18:52:51;;;;;;;18.10;16.60;;;21.10;99.90;;;;;;5061847;28;20047;-69
2021/07/12 18:55:19;;;;;;;18.48;16.90;;;21.10;99.90;;;;;;5082761;28;20035;-69
2021/07/12 18:57:54;;;;;;;18.63;16.77;;;21.00;99.90;;;;;;5067184;28;20051;-69
2021/07/12 19:00:32;;;;;;;22.33;19.73;;;21.00;99.90;;;;;;5083803;28;20144;-69
2021/07/12 19:03:02;;;;;;;20.27;18.20;;;21.00;99.90;;;;;;5079122;28;20047;-69
2021/07/12 19:05:29;;;;;;;22.55;20.65;;;21.00;99.90;;;;;;5083650;28;20040;-70
2021/07/12 19:07:56;;;;;;;23.38;21.08;;;21.00;99.90;;;;;;5083479;28;20158;-69
2021/07/12 19:10:23;;;;;;;25.55;23.35;;;20.90;99.90;;;;;;5066436;28;20147;-69
2021/07/12 19:12:51;;;;;;;24.48;22.10;;;20.90;99.90;;;;;;5080522;28;20046;-70
2021/07/12 19:15:17;;;;;;;23.33;21.27;;;20.90;99.90;;;;;;5082701;28;20817;-70
2021/07/12 19:17:43;;;;;;;24.42;22.05;;;20.90;99.90;;;;;;5084367;28;20036;-70
2021/07/12 19:20:13;;;;;;;25.10;22.90;;;20.90;99.90;;;;;;5083938;28;20052;-70
2021/07/12 19:22:44;;;;;;;25.00;22.67;;;20.80;99.90;;;;;;5078824;28;20047;-70
2021/07/12 19:25:21;;;;;;;23.73;21.77;;;20.80;99.90;;;;;;5082046;28;20027;-71
2021/07/12 19:27:48;;;;;;;24.13;22.02;;;20.80;99.90;;;;;;5083199;28;20042;-69
2021/07/12 19:30:17;;;;;;;23.73;21.67;;;20.80;99.90;;;;;;5082367;28;20071;-69
2021/07/12 19:32:46;;;;;;;23.25;21.02;;;20.80;99.90;;;;;;5078375;28;20032;-70
2021/07/12 19:35:14;;;;;;;23.90;21.80;;;20.70;99.90;;;;;;5082593;28;20036;-72
2021/07/12 19:37:40;;;;;;;23.20;21.05;;;20.70;99.90;;;;;;5077362;28;20113;-69
2021/07/12 19:40:10;;;;;;;23.70;21.48;;;20.70;99.90;;;;;;5080403;28;20100;-69
2021/07/12 19:42:36;;;;;;;23.67;21.55;;;20.70;99.90;;;;;;5079602;28;20116;-69
2021/07/12 19:45:06;;;;;;;23.95;21.92;;;20.60;99.90;;;;;;5077237;28;20397;-71
2021/07/12 19:47:32;;;;;;;23.58;21.67;;;20.50;99.90;;;;;;5085081;28;20043;-70
2021/07/12 19:49:59;;;;;;;23.00;21.00;;;20.50;99.90;;;;;;5082788;28;20577;-69
2021/07/12 19:52:30;;;;;;;24.50;22.20;;;20.50;99.90;;;;;;5079316;28;20051;-70
2021/07/12 19:54:57;;;;;;;22.98;20.67;;;20.50;99.90;;;;;;5080591;28;20036;-71
2021/07/12 19:57:23;;;;;;;22.65;20.73;;;20.40;99.90;;;;;;5080105;28;20043;-69
2021/07/12 19:59:49;;;;;;;23.17;21.25;;;20.40;99.90;;;;;;5080332;28;20036;-69
2021/07/12 20:02:16;;;;;;;23.70;21.45;;;20.40;99.90;;;;;;5080615;28;20036;-69
2021/07/12 20:04:42;;;;;;;25.48;23.23;;;20.30;99.90;;;;;;5062061;28;20379;-69
2021/07/12 20:07:08;;;;;;;25.92;23.73;;;20.30;99.90;;;;;;5081244;28;20162;-70
2021/07/12 20:09:34;;;;;;;24.50;22.30;;;20.30;99.90;;;;;;5082617;28;20043;-70
2021/07/12 20:12:00;;;;;;;26.10;23.95;;;20.30;99.90;;;;;;5081055;28;20085;-69
2021/07/12 20:14:27;;;;;;;25.98;23.27;;;20.30;99.90;;;;;;5062490;28;20059;-70
2021/07/12 20:16:52;;;;;;;26.35;24.08;;;20.20;99.90;;;;;;5082261;28;20123;-69
2021/07/12 20:19:19;;;;;;;26.10;23.73;;;20.10;99.90;;;;;;5082310;28;20136;-69
2021/07/12 20:21:51;;;;;;;27.98;25.42;;;20.20;99.90;;;;;;5084662;28;20123;-70
2021/07/12 20:24:17;;;;;;;27.80;25.20;;;20.10;99.90;;;;;;5078784;28;20048;-70
2021/07/12 20:26:43;;;;;;;26.80;24.27;;;20.10;99.90;;;;;;5082051;28;20031;-70
2021/07/12 20:29:09;;;;;;;29.52;26.75;;;20.10;99.90;;;;;;5082116;28;20054;-70
2021/07/12 20:31:37;;;;;;;28.85;26.20;;;20.00;99.90;;;;;;5083703;28;20516;-70
2021/07/12 20:34:04;;;;;;;30.60;27.70;;;20.00;99.90;;;;;;5077773;28;20034;-70
2021/07/12 20:36:30;;;;;;;29.98;27.38;;;20.00;99.90;;;;;;5080054;28;20036;-70
2021/07/12 20:38:56;;;;;;;33.78;30.17;;;20.00;99.90;;;;;;5081210;28;20048;-70
2021/07/12 20:41:23;;;;;;;34.38;31.17;;;20.00;99.90;;;;;;5083306;28;20042;-69
2021/07/12 20:43:50;;;;;;;31.70;28.80;;;20.00;99.90;;;;;;5077567;28;20711;-69
2021/07/12 20:46:16;;;;;;;31.00;28.00;;;20.00;99.90;;;;;;5082874;28;21531;-69
2021/07/12 20:48:44;;;;;;;34.05;31.05;;;20.10;99.90;;;;;;5084317;28;20055;-70
2021/07/12 20:51:10;;;;;;;31.58;28.65;;;20.00;99.90;;;;;;5082510;28;20123;-69
2021/07/12 20:53:38;;;;;;;35.88;32.47;;;19.90;99.90;;;;;;5078823;28;20123;-69
2021/07/12 20:56:05;;;;;;;35.13;31.65;;;19.90;99.90;;;;;;5063741;28;20774;-69
2021/07/12 20:58:31;;;;;;;35.83;32.47;;;19.90;99.90;;;;;;5080960;28;20793;-69
2021/07/12 21:00:57;;;;;;;37.83;34.20;;;19.90;99.90;;;;;;5080847;28;20046;-69
2021/07/12 21:03:23;;;;;;;35.03;31.70;;;19.90;99.90;;;;;;5078780;28;20070;-69
2021/07/12 21:05:52;;;;;;;37.88;34.28;;;19.90;99.90;;;;;;5081006;28;20036;-70
2021/07/12 21:08:19;;;;;;;39.53;35.72;;;19.90;99.90;;;;;;5082335;28;20068;-69
2021/07/12 21:10:45;;;;;;;39.78;36.22;;;19.90;99.90;;;;;;5084779;28;20051;-69
2021/07/12 21:13:12;;;;;;;39.55;36.03;;;19.90;99.90;;;;;;5077095;28;20040;-70
2021/07/12 21:15:39;;;;;;;38.53;34.92;;;19.90;99.90;;;;;;5080904;28;20039;-69
2021/07/12 21:18:06;;;;;;;41.08;37.08;;;19.90;99.90;;;;;;5080190;28;20534;-70
2021/07/12 21:20:33;;;;;;;41.85;38.15;;;19.80;99.90;;;;;;5083247;28;20036;-69
2021/07/12 21:23:00;;;;;;;42.25;38.28;;;19.80;99.90;;;;;;5079074;28;20501;-70
2021/07/12 21:25:26;;;;;;;40.42;36.38;;;19.80;99.90;;;;;;5082339;28;20051;-70
2021/07/12 21:27:52;;;;;;;40.58;36.78;;;19.80;99.90;;;;;;5081117;28;20132;-69
2021/07/12 21:30:18;;;;;;;40.88;36.97;;;19.80;99.90;;;;;;5080861;28;20489;-70
2021/07/12 21:32:47;;;;;;;41.47;37.38;;;19.80;99.90;;;;;;5078176;28;20044;-70
2021/07/12 21:35:21;;;;;;;40.28;36.28;;;19.70;99.90;;;;;;5083233;28;20039;-69
2021/07/12 21:37:48;;;;;;;41.80;37.83;;;19.80;99.90;;;;;;5075889;28;20051;-70
2021/07/12 21:40:15;;;;;;;43.38;39.47;;;19.70;99.90;;;;;;5082483;28;20397;-70
2021/07/12 21:42:41;;;;;;;45.17;40.78;;;19.70;99.90;;;;;;5079322;28;20047;-70
2021/07/12 21:45:08;;;;;;;45.15;41.05;;;19.70;99.90;;;;;;5080483;28;20036;-70
2021/07/12 21:47:34;;;;;;;47.47;43.03;;;19.70;99.90;;;;;;5083607;28;20052;-70
2021/07/12 21:50:00;;;;;;;45.50;41.17;;;19.60;99.90;;;;;;5080315;28;20032;-70
2021/07/12 21:52:27;;;;;;;44.88;40.67;;;19.60;99.90;;;;;;5078653;28;20078;-70
2021/07/12 21:54:53;;;;;;;45.85;41.25;;;19.60;99.90;;;;;;5080451;28;20033;-69
2021/07/12 21:57:19;;;;;;;44.45;40.30;;;19.60;99.90;;;;;;5080820;28;20054;-70
2021/07/12 21:59:44;;;;;;;44.90;40.33;;;19.60;99.90;;;;;;5082565;28;20036;-69
2021/07/12 22:02:11;;;;;;;44.65;40.17;;;19.60;99.90;;;;;;5081037;28;20068;-69
2021/07/12 22:04:38;;;;;;;46.00;41.33;;;19.60;99.90;;;;;;5078661;28;20508;-70
2021/07/12 22:07:04;;;;;;;46.85;42.55;;;19.50;99.90;;;;;;5082271;28;20107;-70
2021/07/12 22:09:31;;;;;;;41.78;37.65;;;19.60;99.90;;;;;;5082089;28;20040;-70
2021/07/12 22:11:57;;;;;;;45.40;41.05;;;19.60;99.90;;;;;;5082293;28;20162;-70
2021/07/12 22:14:23;;;;;;;45.13;40.50;;;19.60;99.90;;;;;;5079917;28;20035;-70
2021/07/12 22:16:49;;;;;;;45.40;41.00;;;19.50;99.90;;;;;;5080732;28;20066;-69
2021/07/12 22:19:15;;;;;;;42.55;38.50;;;19.50;99.90;;;;;;5080630;28;20158;-70
2021/07/12 22:21:42;;;;;;;43.70;39.47;;;19.40;99.90;;;;;;5078933;28;20420;-70
2021/07/12 22:24:12;;;;;;;43.75;39.55;;;19.50;99.90;;;;;;5076428;28;20044;-69
2021/07/12 22:26:39;;;;;;;45.25;40.90;;;19.40;99.90;;;;;;5085345;28;20036;-70
2021/07/12 22:29:08;;;;;;;48.30;43.67;;;19.40;99.90;;;;;;5085828;28;20043;-70
2021/07/12 22:31:36;;;;;;;48.65;43.90;;;19.40;99.90;;;;;;5085335;28;20135;-70
2021/07/12 22:34:03;;;;;;;50.28;45.22;;;19.40;99.90;;;;;;5080523;28;20093;-70
2021/07/12 22:36:28;;;;;;;45.03;40.65;;;19.40;99.90;;;;;;5084841;28;20394;-70
2021/07/12 22:38:54;;;;;;;46.63;41.67;;;19.40;99.90;;;;;;5082724;28;20033;-70
2021/07/12 22:41:21;;;;;;;48.88;43.75;;;19.40;99.90;;;;;;5085036;28;20028;-70
2021/07/12 22:43:47;;;;;;;50.92;45.72;;;19.40;99.90;;;;;;5081982;28;20036;-70
2021/07/12 22:46:13;;;;;;;48.00;43.38;;;19.40;99.90;;;;;;5083831;28;20500;-70
2021/07/12 22:48:39;;;;;;;44.13;39.97;;;19.40;99.90;;;;;;5084884;28;20052;-70
2021/07/12 22:51:09;;;;;;;41.15;36.95;;;19.40;99.90;;;;;;5082444;28;20066;-70
2021/07/12 22:53:35;;;;;;;40.97;36.75;;;19.30;99.90;;;;;;5081739;28;20036;-70
2021/07/12 22:56:02;;;;;;;36.50;33.03;;;19.30;99.90;;;;;;5084922;28;20045;-70
2021/07/12 22:58:27;;;;;;;38.83;34.97;;;19.30;99.90;;;;;;5065243;28;20051;-70
2021/07/12 23:00:53;;;;;;;41.45;36.00;;;19.20;99.90;;;;;;5084385;28;20036;-70
2021/07/12 23:03:19;;;;;;;41.58;37.05;;;19.20;99.90;;;;;;5064030;28;20036;-70
2021/07/12 23:05:45;;;;;;;38.25;34.30;;;19.20;99.90;;;;;;5085040;28;20094;-69
2021/07/12 23:08:11;;;;;;;34.95;31.70;;;19.20;99.90;;;;;;5084874;28;20120;-69
2021/07/12 23:10:38;;;;;;;36.40;32.88;;;19.10;99.90;;;;;;5086728;28;20463;-69
2021/07/12 23:13:06;;;;;;;34.38;31.05;;;19.10;99.90;;;;;;5082167;28;20054;-69
2021/07/12 23:15:32;;;;;;;34.65;30.48;;;19.10;99.90;;;;;;5085000;28;20059;-69
2021/07/12 23:17:58;;;;;;;36.08;32.50;;;19.00;99.90;;;;;;5083866;28;20040;-70
2021/07/12 23:20:27;;;;;;;36.67;32.97;;;19.00;99.90;;;;;;5085774;28;20048;-70
2021/07/12 23:22:53;;;;;;;36.75;33.20;;;18.90;99.90;;;;;;5082280;28;20036;-70
2021/07/12 23:25:20;;;;;;;38.90;32.88;;;18.90;99.90;;;;;;5082779;28;20074;-70
2021/07/12 23:27:46;;;;;;;37.97;34.13;;;18.80;99.90;;;;;;5084529;28;20865;-70
2021/07/12 23:30:15;;;;;;;36.50;32.72;;;18.80;99.90;;;;;;5065547;28;20146;-70
2021/07/12 23:32:43;;;;;;;38.35;32.75;;;18.80;99.90;;;;;;5081768;28;20047;-70
2021/07/12 23:35:11;;;;;;;40.70;35.83;;;18.70;99.90;;;;;;5084969;28;20047;-70
2021/07/12 23:37:40;;;;;;;40.63;36.42;;;18.70;99.90;;;;;;5067834;28;20048;-69
2021/07/12 23:40:11;;;;;;;41.58;34.35;;;18.60;99.90;;;;;;5080434;28;20051;-70
2021/07/12 23:42:37;;;;;;;37.10;33.38;;;18.60;99.90;;;;;;5080196;28;20493;-70
2021/07/12 23:45:05;;;;;;;41.40;35.58;;;18.50;99.90;;;;;;5082940;28;20048;-69
2021/07/12 23:47:32;;;;;;;36.17;32.60;;;18.50;99.90;;;;;;5082757;28;20064;-69
2021/07/12 23:49:59;;;;;;;42.05;37.55;;;18.50;99.90;;;;;;5084088;28;20051;-69
2021/07/12 23:52:25;;;;;;;44.00;39.42;;;18.50;99.90;;;;;;5082942;28;20043;-70
2021/07/12 23:54:51;;;;;;;48.70;41.22;;;18.50;99.90;;;;;;5084287;28;20489;-70
2021/07/12 23:57:17;;;;;;;49.78;44.55;;;18.60;99.90;;;;;;5082764;28;20039;-70
2021/07/12 23:59:43;;;;;;;52.40;44.88;;;18.60;99.90;;;;;;5083375;28;20067;-70
